Flight Track Log - Related Links

Times and Time Zones

All times are in EDT time to prevent confusion due to time zone crossing. See the ASH2773 flight status page for this flight to view local times or setup timezone preferences in your user account.

Time Position Orientation Groundspeed Altitude Reporting Facility
EDT Latitude Longitude Course Direction KTS MPH feet Rate Location/Type
07:45AM 35.2389 -80.9414 72° East 169 194 1,900  Level Atlanta Center
07:46AM 35.2803 -80.9222 21° North 204 235 3,500 2,224 Climbing Atlanta Center
07:47AM 35.3011 -80.8425 72° East 279 321 6,200 2,093 Climbing Atlanta Center
07:48AM 35.2900 -80.7336 97° East 299 344 8,000 984 Climbing Atlanta Center
07:49AM 35.2399 -80.5382 30° Northeast  Level FlightAware Approximate
07:49AM 35.2956 -80.6367 86° East 302 348 8,300  Level Atlanta Center
07:50AM 35.3334 -80.4666 72° East  Level FlightAware Approximate
07:50AM 35.3178 -80.5389 74° East 302 348 10,400  Level Atlanta Center
07:51AM 35.3701 -80.3275 72° East  Level FlightAware Approximate
07:51AM 35.3481 -80.4256 72° East 321 369 12,500  Level Atlanta Center
07:53AM 35.4033 -80.2433 70° East 375 432 16,100 2,235 Climbing Washington Center
07:54AM 35.4406 -80.1183 70° East 387 445 18,200 2,081 Climbing Washington Center
07:55AM 35.4764 -79.9717 73° East 403 464 20,400 1,968 Climbing Washington Center
07:56AM 35.5117 -79.8356 72° East 414 476 22,300 1,561 Climbing Washington Center
07:57AM 35.5481 -79.6953 72° East 425 489 23,600 1,328 Climbing Washington Center
07:58AM 35.5842 -79.5486 73° East 446 513 25,000 1,366 Climbing Washington Center
07:59AM 35.6286 -79.4008 70° East 459 528 26,400 1,417 Climbing Washington Center
08:00AM 35.7000 -79.2311 63° Northeast 464 534 28,000 1,238 Climbing Washington Center
08:01AM 35.7597 -79.0853 63° Northeast 471 542 29,000 992 Climbing Washington Center
08:02AM 35.8189 -78.9386 64° Northeast 472 543 30,000 1,016 Climbing Washington Center
08:03AM 35.8836 -78.7831 63° Northeast 498 573 31,100 992 Climbing Washington Center
08:04AM 35.9458 -78.6269 64° Northeast 501 577 32,100 968 Climbing Washington Center
08:05AM 36.0094 -78.4703 63° Northeast 504 580 33,100 984 Climbing Washington Center
08:06AM 36.0731 -78.3111 64° Northeast 513 590 34,100 927 Climbing Washington Center
08:07AM 36.1358 -78.1539 64° Northeast 511 588 35,000 429 Climbing Washington Center
08:08AM 36.2131 -77.9611 64° Northeast 520 598 35,000  Level Washington Center
08:09AM 36.2767 -77.7964 64° Northeast 528 608 35,000  Level Washington Center
08:10AM 36.3408 -77.6325 64° Northeast 529 609 35,000  Level Washington Center
08:11AM 36.4053 -77.4689 64° Northeast 529 609 35,000  Level Washington Center
08:12AM 36.4775 -77.2808 64° Northeast 527 606 35,000  Level Washington Center
08:13AM 36.5394 -77.1217 64° Northeast 520 598 35,000  Level Washington Center
08:14AM 36.6017 -76.9639 64° Northeast 519 597 35,000  Level Washington Center
08:15AM 36.6611 -76.8072 65° Northeast 517 595 35,000  Level Washington Center
08:16AM 36.7225 -76.6486 64° Northeast 513 590 35,000  Level Washington Center
08:18AM 36.7942 -76.4600 65° Northeast 510 587 35,000  Level Washington Center
08:19AM 36.8553 -76.3039 64° Northeast 509 586 35,000  Level Washington Center
08:20AM 36.9461 -76.1836 47° Northeast 484 557 35,000  Level Washington Center
08:21AM 37.0661 -76.1067 27° Northeast 453 521 35,000  Level Washington Center
08:22AM 37.1703 -76.0144 35° Northeast 453 521 35,000  Level Washington Center
08:23AM 37.2722 -75.9203 36° Northeast 453 521 35,000  Level Washington Center
08:24AM 37.3728 -75.8275 36° Northeast 453 521 35,000  Level Washington Center
08:25AM 37.4736 -75.7347 36° Northeast 452 520 35,000  Level Washington Center
08:26AM 37.5911 -75.6247 37° Northeast 446 513 35,000  Level Washington Center
08:27AM 37.6903 -75.5306 37° Northeast 445 512 35,000  Level Washington Center
08:28AM 37.7919 -75.4369 36° Northeast 448 516 35,000  Level Washington Center
08:29AM 37.8950 -75.3406 36° Northeast 457 526 35,000  Level Washington Center
08:30AM 37.9961 -75.2442 37° Northeast 457 526 35,000  Level Washington Center
08:31AM 38.0975 -75.1467 37° Northeast 457 526 35,000  Level Washington Center
08:32AM 38.2192 -75.0317 37° Northeast 457 526 35,000 238 Level Washington Center
08:33AM 38.3122 -74.9439 36° Northeast 456 525 35,500 934 Climbing Washington Center
08:34AM 38.4122 -74.8497 36° Northeast 451 519 36,900 720 Climbing Washington Center
08:35AM 38.5306 -74.7344 37° Northeast 448 516 37,000 48 Climbing Washington Center
08:36AM 38.6339 -74.6328 38° Northeast 465 535 37,000  Level Washington Center
08:37AM 38.7411 -74.5275 37° Northeast 484 557 37,000 -48 Level Washington Center
08:38AM 38.8489 -74.4217 37° Northeast 487 560 36,900 -49 Descending Washington Center
08:39AM 38.9525 -74.3100 40° Northeast 488 562 36,900  Level Washington Center
08:40AM 39.0756 -74.1758 40° Northeast 482 555 36,900 48 Level Washington Center
08:41AM 39.1739 -74.0667 41° Northeast 472 543 37,000 48 Climbing Washington Center
08:42AM 39.2753 -73.9553 40° Northeast 476 548 37,000  Level Washington Center
08:43AM 39.3761 -73.8433 41° Northeast 480 552 37,000  Level Washington Center
08:44AM 39.4786 -73.7286 41° Northeast 487 560 37,000  Level Washington Center
08:45AM 39.6017 -73.5914 41° Northeast 488 562 37,000  Level Washington Center
08:47AM 39.7050 -73.4742 41° Northeast 493 567 37,000  Level Washington Center
08:48AM 39.8158 -73.3464 42° Northeast 495 570 37,000  Level Washington Center
08:49AM 39.9214 -73.2286 41° Northeast 497 572 37,000 -192 Level Washington Center
08:50AM 40.0261 -73.1078 41° Northeast 499 574 36,600 -1,632 Descending Washington Center
08:51AM 40.1333 -72.9864 41° Northeast 507 583 33,600 -2,688 Descending Washington Center
08:52AM 40.2375 -72.8703 40° Northeast 501 577 31,000 -2,832 Descending Washington Center
08:53AM 40.3589 -72.7267 42° Northeast 497 572 27,700 -2,880 Descending Washington Center
08:54AM 40.4556 -72.6156 41° Northeast 475 547 25,000 -2,678 Descending Washington Center
08:55AM 40.5467 -72.5086 42° Northeast 452 520 22,300 -2,565 Descending Washington Center
08:56AM 40.6431 -72.3964 41° Northeast 462 532 19,700 -2,865 Descending Washington Center
08:57AM 40.7311 -72.2981 40° Northeast 447 514 17,000 -2,914 Descending Boston Center
08:57AM 40.7525 -72.2703 45° Northeast 446 513 16,300 -2,429 Descending Boston Center
08:57AM 40.7889 -72.2314 39° Northeast 432 497 15,300 -2,656 Descending Boston Center
08:58AM 40.8394 -72.1703 42° Northeast 424 488 13,600 -2,877 Descending Boston Center
08:59AM 40.8953 -72.1083 40° Northeast 394 453 11,800 -2,459 Descending Boston Center
08:59AM 40.9367 -72.0550 44° Northeast 398 458 11,100 -787 Descending Boston Center
09:00AM 40.9742 -72.0119 41° Northeast 380 437 11,000 -100 Descending Boston Center
09:00AM 41.0156 -71.9625 42° Northeast 386 444 11,000  Level Boston Center
09:00AM 41.0433 -71.9317 40° Northeast 392 451 11,000 -197 Level Boston Center
09:01AM 41.0947 -71.8617 46° Northeast 380 437 10,800 -393 Descending Boston Center
09:01AM 41.1214 -71.8489 20° North 346 398 10,600 -885 Descending Boston Center
09:02AM 41.1753 -71.8106 28° Northeast 313 360 9,900 -1,444 Descending Boston Center
09:02AM 41.1917 -71.8033 18° North 264 304 9,300 -2,066 Descending Boston Center
09:03AM 41.2458 -71.7700 25° Northeast 281 323 7,800 -1,582 Descending Boston Center
09:04AM 41.3228 -71.7211 26° Northeast 283 326 6,400 -1,233 Descending Boston Center
09:04AM 41.3333 -71.7150 23° Northeast 267 307 6,300 -689 Descending Boston Center
09:05AM 41.3894 -71.6778 26° Northeast 270 311 5,700 -727 Descending Boston Center
09:05AM 41.4086 -71.6650 27° Northeast 273 314 5,500 -700 Descending Boston Center
09:06AM 41.4569 -71.6344 25° Northeast 270 311 5,000 -764 Descending Boston Center
09:06AM 41.4686 -71.6267 27° Northeast 268 308 4,800 -1,180 Descending Boston Center
09:07AM 41.5192 -71.5936 26° Northeast 253 291 3,800 -1,300 Descending Boston Center
09:07AM 41.5308 -71.5864 25° Northeast 234 269 3,500 -1,574 Descending Boston Center
09:08AM 41.5725 -71.5542 30° Northeast 221 254 2,200 -1,475 Descending Boston Center
09:08AM 41.5828 -71.5447 35° Northeast 199 229 2,000 -197 Descending Boston Center
09:09AM 41.6189 -71.5153 31° Northeast 186 214 2,000  Level Boston Center
09:09AM 41.6242 -71.5111 31° Northeast 175 201 2,000 -592 Level Boston Center
09:10AM 41.6561 -71.4822 34° Northeast 120 138 1,300 -595 Descending Boston Center
09:11AM 41.6822 -71.4614 31° Northeast 132 152 900 -492 Descending Boston Center
09:11AM 41.6869 -71.4589 22° Northeast 127 146 800 -689 Descending Boston Center
09:12AM 41.7125 -71.4369 33° Northeast 131 151 200 -706 Descending Boston Center

Login

Don't have an account? Register now (free) for customized features, flight alerts, and more!